Time;durP1;ratioP1;P1;durP2;ratioP2;P2;SDS_P1;SDS_P2;PMS_P1;PMS_P2;Temp;Humidity;BMP_temperature;BMP_pressure;BME280_temperature;BME280_humidity;BME280_pressure;Samples;Min_cycle;Max_cycle;Signal;HPM_P1;HPM_P2
2023/08/17 00:00:04;;;;;;;4.72;2.17;;;;;;;26.80;39.70;98726.31;5031449;28;20076;-71
2023/08/17 00:02:30;;;;;;;5.90;2.58;;;;;;;26.80;39.56;98735.16;5031466;28;20040;-72
2023/08/17 00:04:55;;;;;;;5.40;2.53;;;;;;;26.77;39.75;98721.41;5031455;28;20033;-72
2023/08/17 00:07:21;;;;;;;5.20;2.50;;;;;;;26.80;39.54;98731.66;5015139;28;20393;-71
2023/08/17 00:09:47;;;;;;;5.63;2.30;;;;;;;26.82;39.69;98732.25;5033018;28;20033;-72
2023/08/17 00:12:13;;;;;;;5.68;2.40;;;;;;;26.81;39.24;98739.47;5015447;28;20527;-72
2023/08/17 00:14:38;;;;;;;6.63;2.53;;;;;;;26.80;39.43;98727.13;5031623;28;20021;-72
2023/08/17 00:17:04;;;;;;;3.40;2.00;;;;;;;26.82;39.40;98733.09;5031777;28;20119;-72
2023/08/17 00:19:29;;;;;;;4.97;1.90;;;;;;;26.78;39.29;98721.19;5032867;28;20033;-72
2023/08/17 00:21:55;;;;;;;4.07;2.20;;;;;;;26.79;39.26;98719.31;5031618;28;20026;-71
2023/08/17 00:24:20;;;;;;;5.18;2.10;;;;;;;26.80;39.54;98719.09;5031647;28;20029;-72
2023/08/17 00:26:46;;;;;;;5.85;2.30;;;;;;;26.77;39.36;98708.00;5031618;28;20468;-72
2023/08/17 00:29:11;;;;;;;3.75;1.92;;;;;;;26.79;39.28;98719.31;5032040;28;20044;-72
2023/08/17 00:31:37;;;;;;;5.30;2.22;;;;;;;26.79;39.45;98717.47;5032525;28;20416;-72
2023/08/17 00:34:03;;;;;;;4.90;2.20;;;;;;;26.79;39.31;98711.28;5032530;28;20055;-71
2023/08/17 00:36:28;;;;;;;5.05;2.05;;;;;;;26.74;39.44;98705.78;5031692;28;20072;-71
2023/08/17 00:38:53;;;;;;;9.95;2.47;;;;;;;26.76;39.24;98712.56;5014973;28;20044;-72
2023/08/17 00:41:19;;;;;;;6.03;2.30;;;;;;;26.76;39.69;98717.06;5032590;28;20045;-72
2023/08/17 00:43:44;;;;;;;5.85;2.22;;;;;;;26.74;39.32;98711.13;5031497;28;20042;-72
2023/08/17 00:46:10;;;;;;;3.67;2.20;;;;;;;26.74;39.34;98700.41;5014859;28;20037;-72
2023/08/17 00:48:36;;;;;;;3.83;2.33;;;;;;;26.69;39.37;98701.09;5014382;28;20034;-72
2023/08/17 00:51:02;;;;;;;6.60;2.15;;;;;;;26.71;39.52;98707.88;5031003;28;20111;-72
2023/08/17 00:53:28;;;;;;;6.28;2.50;;;;;;;26.67;39.60;98695.94;5014864;28;20048;-72
2023/08/17 00:55:54;;;;;;;4.32;2.22;;;;;;;26.70;39.26;98702.72;5014919;28;20083;-72
2023/08/17 00:58:21;;;;;;;3.92;2.20;;;;;;;26.68;39.24;98694.94;5018015;28;20075;-72
2023/08/17 01:00:46;;;;;;;3.85;2.22;;;;;;;26.71;39.26;98696.34;5017876;28;20029;-72
2023/08/17 01:03:11;;;;;;;6.40;2.10;;;;;;;26.70;39.06;98690.16;5027052;28;20358;-72
2023/08/17 01:05:37;;;;;;;5.35;2.33;;;;;;;26.71;39.08;98691.81;5014079;28;20099;-72
2023/08/17 01:08:03;;;;;;;3.95;2.25;;;;;;;26.69;39.17;98690.38;5045008;28;20032;-72
2023/08/17 01:10:37;;;;;;;5.22;2.00;;;;;;;26.68;39.25;98683.41;5034231;28;20473;-72
2023/08/17 01:13:07;;;;;;;3.53;2.22;;;;;;;26.71;38.55;98686.44;5035151;28;20079;-72
2023/08/17 01:15:36;;;;;;;4.53;2.25;;;;;;;26.69;39.14;98682.34;5015004;28;20443;-71
2023/08/17 01:18:16;;;;;;;3.72;2.08;;;;;;;26.71;38.80;98682.97;4998254;28;20117;-72
2023/08/17 01:20:42;;;;;;;5.82;2.35;;;;;;;26.70;39.33;98679.44;5014575;28;20033;-75
2023/08/17 01:23:08;;;;;;;6.53;2.20;;;;;;;26.67;39.22;98674.53;5014336;28;20516;-75
2023/08/17 01:25:36;;;;;;;4.22;2.20;;;;;;;26.67;39.29;98684.44;5014247;28;20046;-75
2023/08/17 01:28:05;;;;;;;6.63;2.22;;;;;;;26.64;39.25;98682.19;4998914;28;20428;-75
2023/08/17 01:30:44;;;;;;;5.78;2.20;;;;;;;26.61;39.47;98677.25;5030919;28;20108;-75
2023/08/17 01:33:09;;;;;;;6.47;2.42;;;;;;;26.63;39.27;98681.38;5035121;28;20049;-75
2023/08/17 01:35:46;;;;;;;5.68;2.13;;;;;;;26.63;39.44;98688.56;5017582;28;20106;-75
2023/08/17 01:38:18;;;;;;;4.35;1.90;;;;;;;26.57;39.53;98676.91;5033930;28;20025;-75
2023/08/17 01:40:44;;;;;;;5.18;2.40;;;;;;;26.60;39.66;98686.31;5018058;28;20029;-75
2023/08/17 01:43:09;;;;;;;5.85;2.45;;;;;;;26.58;39.73;98680.38;5034162;28;20025;-75
2023/08/17 01:45:35;;;;;;;6.30;2.30;;;;;;;26.58;39.81;98680.38;5030563;28;20048;-75
2023/08/17 01:48:00;;;;;;;3.50;2.10;;;;;;;26.53;40.14;98681.88;5031016;28;20030;-76
2023/08/17 01:50:26;;;;;;;6.88;2.20;;;;;;;26.56;40.09;98679.81;5014107;28;20117;-76
2023/08/17 01:52:51;;;;;;;3.38;2.35;;;;;;;26.53;40.29;98686.41;5015194;28;20052;-75
2023/08/17 01:55:17;;;;;;;8.93;2.40;;;;;;;26.46;40.36;98683.81;5034297;28;20451;-75
2023/08/17 01:57:42;;;;;;;5.20;2.25;;;;;;;26.49;40.63;98682.56;5034856;28;20108;-75
2023/08/17 02:00:10;;;;;;;5.47;2.40;;;;;;;26.47;40.89;98685.44;5034480;28;20543;-75
2023/08/17 02:02:36;;;;;;;;;;;;;;;26.45;41.00;98687.50;5035037;28;20385;-75
2023/08/17 02:05:01;;;;;;;5.05;2.28;;;;;;;26.43;40.78;98681.56;5035421;28;19920;-75
2023/08/17 02:07:27;;;;;;;4.65;2.10;;;;;;;26.41;41.17;98680.13;5033857;28;20056;-75
2023/08/17 02:09:52;;;;;;;6.57;2.55;;;;;;;26.42;41.14;98679.09;5035385;28;20021;-75
2023/08/17 02:12:18;;;;;;;4.25;2.60;;;;;;;26.43;40.98;98684.25;5050547;28;20049;-75
2023/08/17 02:14:43;;;;;;;6.55;2.20;;;;;;;26.44;40.96;98677.03;5050566;28;20083;-74
2023/08/17 02:17:09;;;;;;;4.07;2.28;;;;;;;26.45;41.05;98676.00;5035415;28;20034;-75
2023/08/17 02:19:34;;;;;;;5.35;2.38;;;;;;;26.42;41.10;98671.88;5050681;28;20033;-75
2023/08/17 02:22:02;;;;;;;6.93;2.28;;;;;;;26.43;41.10;98672.72;5033861;28;20507;-74
2023/08/17 02:24:27;;;;;;;4.35;2.33;;;;;;;26.47;41.14;98674.75;5033905;28;20064;-75
2023/08/17 02:26:53;;;;;;;5.55;2.42;;;;;;;26.47;41.28;98677.41;5033764;28;20065;-75
2023/08/17 02:29:18;;;;;;;4.05;2.47;;;;;;;26.46;40.99;98678.44;5050587;28;20507;-75
2023/08/17 02:31:43;;;;;;;3.60;2.60;;;;;;;26.42;41.04;98669.22;5050657;28;20041;-75
2023/08/17 02:34:10;;;;;;;6.13;2.63;;;;;;;26.39;40.93;98666.16;5033488;28;20030;-75
2023/08/17 02:36:35;;;;;;;9.23;2.58;;;;;;;26.37;41.14;98671.75;5033646;28;20076;-75
2023/08/17 02:39:01;;;;;;;6.18;2.45;;;;;;;26.33;41.16;98666.03;5033605;28;20029;-75
2023/08/17 02:41:26;;;;;;;5.25;2.45;;;;;;;26.35;41.24;98668.47;5016530;28;20041;-75
2023/08/17 02:43:51;;;;;;;4.70;2.65;;;;;;;26.37;41.50;98685.13;5016784;28;20048;-75
2023/08/17 02:46:17;;;;;;;5.53;2.63;;;;;;;26.36;41.27;98684.31;5034119;28;20029;-75
2023/08/17 02:48:42;;;;;;;5.10;2.35;;;;;;;26.35;41.56;98685.34;5034589;28;20480;-75
2023/08/17 02:51:08;;;;;;;4.82;2.22;;;;;;;26.32;41.51;98680.44;5032400;28;20037;-75
2023/08/17 02:53:33;;;;;;;3.50;2.25;;;;;;;26.34;41.31;98688.25;5016679;28;20080;-71
2023/08/17 02:55:59;;;;;;;6.88;2.40;;;;;;;26.39;42.09;98690.25;5016616;28;20053;-73
2023/08/17 02:58:24;;;;;;;9.65;2.70;;;;;;;26.43;42.00;98689.59;5016706;28;20037;-74
2023/08/17 03:00:53;;;;;;;7.10;2.60;;;;;;;26.49;42.39;98696.75;5022623;28;20041;-73
2023/08/17 03:03:19;;;;;;;9.57;3.10;;;;;;;26.50;42.92;98684.16;5034643;28;20055;-72
2023/08/17 03:05:44;;;;;;;7.22;2.67;;;;;;;26.46;43.10;98689.16;5000086;28;20138;-72
2023/08/17 03:08:10;;;;;;;7.30;2.58;;;;;;;26.45;42.47;98692.06;5049547;28;20033;-72
2023/08/17 03:10:37;;;;;;;10.75;2.67;;;;;;;26.46;42.56;98683.00;5033892;28;20061;-73
2023/08/17 03:13:02;;;;;;;10.05;2.72;;;;;;;26.47;42.72;98677.41;5016444;28;20032;-74
2023/08/17 03:15:28;;;;;;;5.97;2.50;;;;;;;26.61;42.58;98687.97;5016925;28;20045;-74
2023/08/17 03:17:53;;;;;;;12.05;3.03;;;;;;;26.70;42.24;98692.03;5033072;28;20033;-72
2023/08/17 03:20:19;;;;;;;5.55;2.88;;;;;;;26.74;42.15;98692.38;5036536;28;20046;-81
2023/08/17 03:22:44;;;;;;;6.10;2.60;;;;;;;26.73;42.11;98693.44;5042777;28;20034;-80
2023/08/17 03:25:09;;;;;;;13.38;2.80;;;;;;;26.79;42.05;98698.72;5028112;28;20029;-79
2023/08/17 03:27:35;;;;;;;6.68;2.78;;;;;;;26.79;41.70;98698.72;5032167;28;20029;-79
2023/08/17 03:30:01;;;;;;;4.85;2.35;;;;;;;26.79;41.27;98692.53;5016520;28;20041;-80
2023/08/17 03:32:26;;;;;;;5.50;2.50;;;;;;;26.80;40.94;98697.66;5034736;28;20040;-79
2023/08/17 03:34:52;;;;;;;4.72;2.30;;;;;;;26.80;40.72;98696.84;5032943;28;20408;-79
2023/08/17 03:37:17;;;;;;;5.32;2.25;;;;;;;26.85;40.52;98708.53;5033950;28;20408;-79
2023/08/17 03:39:43;;;;;;;6.63;2.67;;;;;;;26.89;40.41;98696.31;5016530;28;20038;-80
2023/08/17 03:42:08;;;;;;;9.10;2.47;;;;;;;26.97;40.07;98702.44;5032938;28;20037;-81
2023/08/17 03:44:34;;;;;;;4.90;2.30;;;;;;;27.13;39.68;98704.47;5032525;28;20485;-79
2023/08/17 03:46:59;;;;;;;4.53;2.22;;;;;;;27.22;39.63;98697.78;5016182;28;20116;-79
2023/08/17 03:49:25;;;;;;;4.88;2.28;;;;;;;27.42;39.05;98708.28;5016027;28;20107;-81
2023/08/17 03:51:50;;;;;;;8.00;2.63;;;;;;;27.43;39.21;98703.72;5033239;28;20100;-79
2023/08/17 03:54:17;;;;;;;8.43;2.30;;;;;;;27.56;38.80;98700.88;5016561;28;20033;-80
2023/08/17 03:56:42;;;;;;;5.10;2.33;;;;;;;27.89;38.41;98696.84;5016031;28;20037;-77
2023/08/17 03:59:08;;;;;;;4.15;2.10;;;;;;;28.22;37.58;98697.38;5032182;28;20103;-80
2023/08/17 04:01:33;;;;;;;4.63;2.00;;;;;;;28.67;36.70;98702.97;5015873;28;20069;-79
2023/08/17 04:03:59;;;;;;;4.90;2.20;;;;;;;29.23;35.73;98716.75;5015640;28;20037;-71
2023/08/17 04:06:24;;;;;;;13.38;2.78;;;;;;;29.75;34.80;98715.00;5032334;28;20164;-71
2023/08/17 04:08:50;;;;;;;10.52;2.75;;;;;;;30.45;33.72;98707.53;5031831;28;20037;-72
2023/08/17 04:11:15;;;;;;;12.88;2.80;;;;;;;31.07;32.63;98700.28;5031762;28;20029;-78
2023/08/17 04:13:41;;;;;;;8.10;2.20;;;;;;;31.58;31.88;98705.41;4998854;28;20049;-79
2023/08/17 04:16:06;;;;;;;7.25;2.20;;;;;;;32.00;30.94;98704.69;4998719;28;20032;-78
2023/08/17 04:18:31;;;;;;;13.18;2.47;;;;;;;32.52;30.26;98703.97;5015533;28;20044;-78
2023/08/17 04:20:57;;;;;;;10.38;2.00;;;;;;;33.05;29.64;98703.16;5031665;28;20084;-78
2023/08/17 04:23:22;;;;;;;7.35;2.10;;;;;;;33.60;29.15;98700.88;5015082;28;20036;-79
2023/08/17 04:25:48;;;;;;;4.43;2.10;;;;;;;34.18;27.95;98708.75;4998739;28;20091;-79
2023/08/17 04:28:14;;;;;;;7.53;1.80;;;;;;;34.74;27.40;98707.81;4998529;28;20030;-78
2023/08/17 04:30:39;;;;;;;6.03;1.80;;;;;;;35.33;26.74;98708.97;5015110;28;20037;-77
2023/08/17 04:33:05;;;;;;;8.40;1.92;;;;;;;35.85;25.97;98701.25;5014965;28;20030;-78
2023/08/17 04:35:30;;;;;;;5.03;1.73;;;;;;;36.34;25.48;98704.91;5031667;28;20029;-78
2023/08/17 04:37:56;;;;;;;8.40;2.05;;;;;;;36.84;25.05;98705.47;5031490;28;20433;-78
2023/08/17 04:40:21;;;;;;;5.03;1.80;;;;;;;37.40;24.46;98705.81;5015260;28;20072;-78
2023/08/17 04:42:47;;;;;;;6.00;1.80;;;;;;;37.85;23.83;98708.97;5031655;28;20022;-78
2023/08/17 04:45:12;;;;;;;5.10;1.80;;;;;;;38.33;23.12;98708.69;5014072;28;20511;-78
2023/08/17 04:47:38;;;;;;;4.45;1.60;;;;;;;38.80;23.05;98705.09;4998486;28;20029;-78
2023/08/17 04:50:04;;;;;;;5.07;1.75;;;;;;;39.33;22.07;98712.69;5015015;28;20032;-78
2023/08/17 04:52:30;;;;;;;6.68;1.70;;;;;;;39.67;21.95;98714.09;5015013;28;20029;-78
2023/08/17 04:54:55;;;;;;;4.90;1.65;;;;;;;40.01;21.62;98701.81;4998335;28;20472;-79
2023/08/17 04:57:21;;;;;;;4.35;1.63;;;;;;;40.38;21.23;98707.94;5014842;28;20108;-78
2023/08/17 04:59:46;;;;;;;6.05;1.52;;;;;;;40.69;20.57;98702.44;4998918;28;20052;-79
2023/08/17 05:02:12;;;;;;;6.65;1.55;;;;;;;41.10;20.61;98719.59;4998531;28;20408;-78
2023/08/17 05:04:38;;;;;;;5.25;1.48;;;;;;;41.45;20.04;98710.63;5015063;28;20048;-78
2023/08/17 05:07:04;;;;;;;6.03;1.88;;;;;;;41.83;19.71;98720.91;5014360;28;20049;-79
2023/08/17 05:09:30;;;;;;;3.35;1.35;;;;;;;42.19;19.17;98717.78;5032233;28;20052;-79
2023/08/17 05:11:55;;;;;;;5.60;1.50;;;;;;;42.56;18.88;98715.41;5014557;28;20421;-78
2023/08/17 05:14:21;;;;;;;6.03;1.83;;;;;;;42.81;18.85;98715.59;5031715;28;20041;-78
2023/08/17 05:16:46;;;;;;;10.70;2.03;;;;;;;43.11;18.45;98710.91;5014462;28;20037;-78
2023/08/17 05:19:12;;;;;;;6.33;1.57;;;;;;;43.34;17.88;98714.09;5014528;28;20425;-79
2023/08/17 05:21:38;;;;;;;4.20;1.57;;;;;;;43.57;18.06;98716.53;5038562;28;20079;-79
2023/08/17 05:24:04;;;;;;;4.37;1.53;;;;;;;43.84;17.74;98712.41;5017805;28;20029;-80
2023/08/17 05:26:30;;;;;;;4.22;1.40;;;;;;;44.00;17.38;98712.56;5034602;28;20476;-79
2023/08/17 05:28:55;;;;;;;8.33;1.50;;;;;;;44.18;17.11;98704.91;5020792;28;20040;-78
2023/08/17 05:31:20;;;;;;;5.70;1.50;;;;;;;44.39;16.92;98710.34;5038287;28;20025;-79
2023/08/17 05:33:46;;;;;;;8.93;1.57;;;;;;;44.61;16.56;98714.63;5037924;28;20036;-78
2023/08/17 05:36:13;;;;;;;5.65;1.70;;;;;;;44.79;16.44;98708.88;5021663;28;20029;-78
2023/08/17 05:38:38;;;;;;;6.68;1.67;;;;;;;44.94;16.21;98710.88;5038217;28;20476;-79
2023/08/17 05:41:04;;;;;;;6.53;1.50;;;;;;;45.03;16.14;98704.50;5020893;28;20037;-79
2023/08/17 05:43:29;;;;;;;3.57;1.43;;;;;;;45.12;16.21;98707.88;5055025;28;20102;-77
2023/08/17 05:45:57;;;;;;;9.47;1.53;;;;;;;45.23;16.33;98706.25;5038150;28;20021;-77
2023/08/17 05:48:23;;;;;;;6.10;1.50;;;;;;;45.45;16.43;98712.41;5038068;28;20032;-78
2023/08/17 05:50:49;;;;;;;8.70;1.57;;;;;;;45.62;16.26;98703.03;5038197;28;20427;-78
2023/08/17 05:53:14;;;;;;;4.50;1.60;;;;;;;45.73;15.67;98712.38;5038244;28;20090;-78
2023/08/17 05:55:39;;;;;;;5.03;1.70;;;;;;;45.81;16.03;98707.88;5036124;28;20392;-79
2023/08/17 05:58:05;;;;;;;6.67;1.47;;;;;;;45.91;15.77;98709.31;5017793;28;20117;-80
2023/08/17 06:00:30;;;;;;;3.63;1.57;;;;;;;46.00;15.89;98709.97;5017918;28;20045;-80
2023/08/17 06:03:01;;;;;;;11.33;1.73;;;;;;;46.06;15.43;98711.31;5001791;28;20455;-78
2023/08/17 06:05:28;;;;;;;10.93;1.55;;;;;;;46.17;15.36;98706.09;5002240;28;20063;-79
2023/08/17 06:07:54;;;;;;;5.30;1.38;;;;;;;46.27;15.53;98711.06;5017745;28;20480;-82
2023/08/17 06:10:20;;;;;;;6.00;1.70;;;;;;;46.34;15.50;98716.75;5001493;28;20128;-78
2023/08/17 06:12:46;;;;;;;8.38;1.50;;;;;;;46.41;15.67;98705.88;5001638;28;20036;-79
2023/08/17 06:15:11;;;;;;;6.53;1.77;;;;;;;46.49;14.91;98717.88;5001485;28;20034;-80
2023/08/17 06:17:37;;;;;;;5.67;1.30;;;;;;;46.55;15.42;98710.97;5017114;28;20427;-78
2023/08/17 06:20:05;;;;;;;6.47;1.43;;;;;;;46.44;15.30;98709.09;5022043;28;20033;-79
2023/08/17 06:22:30;;;;;;;8.73;1.88;;;;;;;46.40;15.21;98715.34;5036353;28;20135;-79
2023/08/17 06:24:56;;;;;;;5.73;1.30;;;;;;;46.41;15.52;98708.63;5000898;28;20514;-78
2023/08/17 06:27:21;;;;;;;5.77;1.30;;;;;;;46.47;15.17;98705.63;5033620;28;20091;-79
2023/08/17 06:29:47;;;;;;;7.73;1.23;;;;;;;46.37;15.08;98704.19;5033664;28;20059;-79
2023/08/17 06:32:12;;;;;;;7.37;1.30;;;;;;;46.43;15.06;98713.00;5001063;28;20061;-78
2023/08/17 06:34:38;;;;;;;7.13;1.50;;;;;;;46.48;14.63;98709.97;5017383;28;20091;-81
2023/08/17 06:37:04;;;;;;;3.27;1.20;;;;;;;46.51;14.91;98715.59;5017412;28;20103;-77
2023/08/17 06:39:29;;;;;;;3.80;1.20;;;;;;;46.53;14.82;98713.25;5016519;28;20025;-77
2023/08/17 06:41:55;;;;;;;10.23;1.30;;;;;;;46.55;14.74;98715.69;5017170;28;20063;-78
2023/08/17 06:44:20;;;;;;;8.80;1.50;;;;;;;46.56;14.36;98720.88;5017746;28;20132;-82
2023/08/17 06:46:46;;;;;;;5.73;1.13;;;;;;;46.54;13.67;98716.84;5033785;28;20473;-79
2023/08/17 06:49:12;;;;;;;5.63;1.20;;;;;;;46.47;13.35;98714.69;5033471;28;20060;-78
2023/08/17 06:51:38;;;;;;;9.27;1.20;;;;;;;46.30;12.57;98715.06;5000745;28;20449;-79
2023/08/17 06:54:04;;;;;;;7.80;1.13;;;;;;;46.13;12.99;98713.44;5016975;28;20101;-78
2023/08/17 06:56:30;;;;;;;5.68;1.30;;;;;;;46.09;13.15;98713.34;5018695;28;20071;-78
2023/08/17 06:58:55;;;;;;;6.70;1.27;;;;;;;46.05;13.03;98710.50;5016123;28;20060;-77
2023/08/17 07:01:21;;;;;;;7.07;0.82;;;;;;;46.00;12.84;98709.97;5016685;28;20091;-78
2023/08/17 07:03:47;;;;;;;4.87;0.97;;;;;;;45.96;12.48;98704.34;5018846;28;20037;-78
2023/08/17 07:06:13;;;;;;;10.82;1.30;;;;;;;45.87;12.79;98699.00;5035953;28;20071;-78
2023/08/17 07:08:38;;;;;;;5.23;1.20;;;;;;;45.86;12.31;98708.44;5019488;28;20035;-79
2023/08/17 07:11:05;;;;;;;6.03;1.33;;;;;;;45.82;12.42;98701.22;5020115;28;20021;-78
2023/08/17 07:13:31;;;;;;;5.30;1.10;;;;;;;45.77;11.88;98698.72;5020284;28;20033;-80
2023/08/17 07:15:56;;;;;;;5.33;1.30;;;;;;;45.65;11.86;98694.06;5036377;28;20033;-78
2023/08/17 07:18:22;;;;;;;4.07;0.93;;;;;;;45.59;11.84;98692.69;5019690;28;20052;-77
2023/08/17 07:20:49;;;;;;;7.27;1.10;;;;;;;45.51;12.04;98700.75;5019788;28;20380;-78
2023/08/17 07:23:14;;;;;;;7.47;1.40;;;;;;;45.43;12.14;98693.47;5020106;28;20094;-78
2023/08/17 07:25:40;;;;;;;4.53;1.27;;;;;;;45.44;12.22;98706.09;5019701;28;20037;-78
2023/08/17 07:28:05;;;;;;;7.07;1.10;;;;;;;45.34;12.18;98688.09;5035986;28;20028;-76
2023/08/17 07:30:31;;;;;;;5.17;1.47;;;;;;;45.34;12.67;98693.59;5035950;28;20036;-76
2023/08/17 07:32:57;;;;;;;4.63;1.13;;;;;;;45.30;12.47;98697.41;5019618;28;20033;-78
2023/08/17 07:35:22;;;;;;;4.83;1.20;;;;;;;45.29;12.39;98691.06;5019315;28;20040;-75
2023/08/17 07:37:47;;;;;;;12.87;1.87;;;;;;;45.05;15.36;98699.44;5035984;28;20040;-76
2023/08/17 07:40:13;;;;;;;5.13;1.30;;;;;;;44.79;15.08;98690.38;5019300;28;20040;-79
2023/08/17 07:42:38;;;;;;;4.47;1.40;;;;;;;44.74;15.67;98695.31;5020237;28;20048;-75
2023/08/17 07:45:06;;;;;;;3.37;1.30;;;;;;;44.65;14.84;98689.16;5019190;28;20033;-76
2023/08/17 07:47:32;;;;;;;7.18;1.20;;;;;;;44.53;15.39;98695.44;5035900;28;20029;-69
2023/08/17 07:49:57;;;;;;;3.93;1.47;;;;;;;44.43;15.29;98700.25;5053070;28;20033;-71
2023/08/17 07:52:24;;;;;;;3.27;1.33;;;;;;;44.15;15.07;98696.53;5019103;28;20263;-79
2023/08/17 07:54:49;;;;;;;5.68;1.48;;;;;;;43.97;15.92;98688.50;5036758;28;20060;-77
2023/08/17 07:57:24;;;;;;;2.50;1.40;;;;;;;43.86;15.99;98679.09;5019700;28;20492;-81
2023/08/17 08:00:09;;;;;;;3.80;1.40;;;;;;;43.65;16.37;98681.84;5052545;28;20032;-81
2023/08/17 08:02:41;;;;;;;6.88;1.75;;;;;;;43.63;15.29;98695.91;5051726;28;20569;-82
2023/08/17 08:05:33;;;;;;;4.85;1.50;;;;;;;43.50;15.64;98692.34;5052599;28;20053;-81
2023/08/17 08:08:09;;;;;;;5.93;1.30;;;;;;;43.51;15.46;98690.41;5031421;28;20128;-83
2023/08/17 08:10:35;;;;;;;12.93;2.17;;;;;;;43.39;17.03;98682.13;5031299;28;20187;-79
2023/08/17 08:13:01;;;;;;;7.70;1.90;;;;;;;43.28;17.19;98685.22;4998339;28;20128;-77
2023/08/17 08:15:35;;;;;;;8.03;1.70;;;;;;;43.34;17.35;98683.88;4981695;28;20041;-82
2023/08/17 08:18:00;;;;;;;8.48;1.85;;;;;;;43.37;16.79;98676.94;4998598;28;20044;-81
2023/08/17 08:20:41;;;;;;;9.00;2.03;;;;;;;43.41;16.02;98690.81;4997787;28;20396;-83
2023/08/17 08:23:06;;;;;;;6.55;1.75;;;;;;;43.35;16.37;98679.22;5016472;28;20041;-82
2023/08/17 08:25:39;;;;;;;6.20;1.80;;;;;;;43.34;16.53;98674.84;4982390;28;20052;-85
2023/08/17 08:28:06;;;;;;;5.20;1.40;;;;;;;43.33;15.59;98679.56;5031939;28;20136;-81
2023/08/17 08:30:31;;;;;;;8.85;1.65;;;;;;;43.42;16.73;98684.19;4986983;28;20065;-84
2023/08/17 08:33:02;;;;;;;5.70;1.70;;;;;;;43.46;15.42;98685.09;4983815;28;20079;-84
2023/08/17 08:35:33;;;;;;;7.43;1.67;;;;;;;43.48;15.54;98675.38;5034920;28;20033;-87
2023/08/17 08:38:02;;;;;;;9.57;1.60;;;;;;;43.46;15.13;98690.59;5001740;28;20037;-87
2023/08/17 08:40:29;;;;;;;8.90;1.60;;;;;;;43.36;14.74;98675.31;5002288;28;20033;-81
2023/08/17 08:42:54;;;;;;;4.47;1.50;;;;;;;43.15;15.07;98676.13;4999090;28;20029;-84
2023/08/17 08:45:22;;;;;;;4.10;1.50;;;;;;;43.12;15.11;98665.03;5000827;28;20059;-82
2023/08/17 08:47:48;;;;;;;7.53;1.50;;;;;;;43.14;15.35;98669.06;5016475;28;20038;-84
2023/08/17 08:50:20;;;;;;;4.20;1.60;;;;;;;43.14;15.34;98671.78;5015335;28;20136;-79
2023/08/17 08:52:58;;;;;;;12.35;1.70;;;;;;;43.09;15.84;98665.69;5017524;28;20029;-82
2023/08/17 08:55:24;;;;;;;13.38;2.00;;;;;;;43.12;15.67;98662.28;5016229;28;20469;-77
2023/08/17 08:57:50;;;;;;;12.03;2.03;;;;;;;43.18;15.24;98653.50;4998679;28;20039;-76
2023/08/17 09:00:15;;;;;;;6.50;1.80;;;;;;;43.29;15.75;98664.88;5014715;28;20473;-77
2023/08/17 09:02:41;;;;;;;9.57;1.97;;;;;;;43.37;15.41;98653.00;5013747;28;20017;-78
2023/08/17 09:05:08;;;;;;;8.02;2.10;;;;;;;43.46;15.21;98658.44;5014611;28;20116;-77
2023/08/17 09:07:34;;;;;;;11.43;1.55;;;;;;;43.41;14.98;98653.16;5031527;28;20045;-76
2023/08/17 09:09:59;;;;;;;4.03;1.80;;;;;;;43.29;14.48;98659.38;5018044;28;20044;-76
2023/08/17 09:12:25;;;;;;;8.43;1.70;;;;;;;43.17;14.99;98642.84;5034556;28;20028;-77
2023/08/17 09:14:50;;;;;;;8.17;1.67;;;;;;;43.06;14.74;98652.63;5051006;28;20108;-77
2023/08/17 09:17:26;;;;;;;6.03;1.40;;;;;;;42.98;14.28;98646.88;5034226;28;20021;-78
2023/08/17 09:19:51;;;;;;;4.32;1.40;;;;;;;42.79;14.39;98643.75;5034082;28;20079;-77
2023/08/17 09:22:36;;;;;;;5.27;1.50;;;;;;;42.74;14.77;98655.72;5050637;28;20396;-76
2023/08/17 09:25:01;;;;;;;3.72;1.63;;;;;;;42.58;14.64;98641.78;5050639;28;20060;-80
2023/08/17 09:27:27;;;;;;;6.47;1.50;;;;;;;42.57;14.89;98651.16;5050468;28;20053;-77
2023/08/17 09:29:52;;;;;;;3.50;1.57;;;;;;;42.30;15.20;98646.94;5051000;28;20127;-76
2023/08/17 09:32:18;;;;;;;5.90;1.67;;;;;;;42.28;15.32;98638.22;5034073;28;20025;-77
2023/08/17 09:34:44;;;;;;;5.03;1.40;;;;;;;42.23;15.44;98636.47;5050775;28;20033;-79
2023/08/17 09:37:11;;;;;;;6.07;1.67;;;;;;;42.17;15.71;98632.31;5017781;28;20025;-77
2023/08/17 09:39:37;;;;;;;3.70;1.63;;;;;;;42.07;15.68;98627.97;5034475;28;20079;-75
2023/08/17 09:42:02;;;;;;;2.73;1.47;;;;;;;41.95;15.54;98628.66;5033874;28;20029;-77
2023/08/17 09:44:28;;;;;;;4.87;1.63;;;;;;;41.83;15.42;98631.31;5017408;28;20033;-78
2023/08/17 09:46:56;;;;;;;4.63;1.77;;;;;;;41.75;15.72;98632.94;5050468;28;20032;-76
2023/08/17 09:49:25;;;;;;;6.18;1.70;;;;;;;41.59;15.62;98640.84;5050780;28;20083;-77
2023/08/17 09:51:52;;;;;;;7.05;1.70;;;;;;;41.44;16.20;98632.34;5050683;28;20028;-77
2023/08/17 09:54:23;;;;;;;10.23;1.90;;;;;;;41.31;16.03;98628.63;5050347;28;20033;-78
2023/08/17 09:56:50;;;;;;;5.95;1.60;;;;;;;41.20;16.02;98647.31;5017776;28;20032;-77
2023/08/17 09:59:15;;;;;;;3.80;1.58;;;;;;;41.02;16.37;98630.06;5034175;28;20044;-77
2023/08/17 10:01:41;;;;;;;4.63;1.42;;;;;;;41.01;16.05;98631.22;5034128;28;20025;-77
2023/08/17 10:04:06;;;;;;;7.68;1.67;;;;;;;40.85;15.85;98637.16;5033692;28;20064;-77
2023/08/17 10:06:32;;;;;;;4.53;1.40;;;;;;;40.51;16.43;98630.44;5034032;28;20055;-77
2023/08/17 10:08:57;;;;;;;5.18;1.70;;;;;;;40.26;16.37;98636.63;5017298;28;20025;-81
2023/08/17 10:11:23;;;;;;;3.35;1.70;;;;;;;40.21;16.73;98628.56;5017282;28;20404;-78
2023/08/17 10:13:56;;;;;;;5.90;1.75;;;;;;;40.13;17.01;98641.88;5018405;28;20037;-77
2023/08/17 10:16:24;;;;;;;6.38;1.50;;;;;;;40.10;16.97;98641.72;5021372;28;20025;-79
2023/08/17 10:19:09;;;;;;;3.40;1.60;;;;;;;39.95;16.83;98638.25;5020898;28;20058;-77
2023/08/17 10:22:07;;;;;;;3.67;1.50;;;;;;;39.76;17.04;98633.00;5054118;28;20039;-78
2023/08/17 10:24:36;;;;;;;4.97;1.60;;;;;;;39.72;17.19;98631.22;5053174;28;20039;-80
2023/08/17 10:27:02;;;;;;;6.00;1.73;;;;;;;39.59;17.26;98622.78;5020042;28;20037;-76
2023/08/17 10:29:27;;;;;;;4.13;1.73;;;;;;;39.53;17.47;98640.41;5036467;28;20044;-77
2023/08/17 10:31:53;;;;;;;4.30;1.70;;;;;;;39.46;17.61;98623.66;5036245;28;20037;-77
2023/08/17 10:34:19;;;;;;;7.28;1.52;;;;;;;39.48;17.60;98629.59;5035792;28;20128;-77
2023/08/17 10:36:44;;;;;;;7.20;1.85;;;;;;;39.45;17.45;98617.34;5035907;28;20049;-78
2023/08/17 10:39:22;;;;;;;6.43;1.55;;;;;;;39.47;17.70;98627.19;5019010;28;20029;-78
2023/08/17 10:41:51;;;;;;;7.28;1.67;;;;;;;39.30;17.52;98615.03;5036229;28;20115;-78
2023/08/17 10:44:37;;;;;;;3.83;1.70;;;;;;;39.29;17.64;98613.41;5036110;28;20025;-80
2023/08/17 10:47:21;;;;;;;7.53;1.35;;;;;;;39.17;17.81;98610.41;5022011;28;20472;-76
2023/08/17 10:50:09;;;;;;;10.32;1.67;;;;;;;39.15;17.66;98602.53;5036133;28;20134;-77
2023/08/17 10:52:36;;;;;;;6.53;1.70;;;;;;;39.00;17.58;98606.41;5019943;28;20029;-77
2023/08/17 10:55:05;;;;;;;3.78;1.45;;;;;;;38.74;17.91;98600.72;5035861;28;20045;-78
2023/08/17 10:57:36;;;;;;;3.70;1.38;;;;;;;38.63;18.35;98612.97;5035754;28;20044;-76
2023/08/17 11:00:27;;;;;;;6.80;1.60;;;;;;;38.52;18.25;98599.53;5035625;28;20044;-77
2023/08/17 11:02:59;;;;;;;6.55;1.83;;;;;;;38.49;18.50;98605.59;4999832;28;20065;-76
2023/08/17 11:05:53;;;;;;;9.27;1.58;;;;;;;38.29;18.37;98604.09;4999229;28;20102;-77
2023/08/17 11:08:37;;;;;;;5.68;1.58;;;;;;;38.13;18.90;98594.56;5015355;28;20088;-76
2023/08/17 11:11:09;;;;;;;4.60;1.40;;;;;;;38.05;19.12;98608.91;4999621;28;20135;-79
2023/08/17 11:13:36;;;;;;;5.43;1.45;;;;;;;37.92;19.32;98605.84;5000246;28;20037;-78
2023/08/17 11:16:02;;;;;;;5.05;1.60;;;;;;;37.74;19.63;98606.75;4999186;28;20512;-79
2023/08/17 11:18:28;;;;;;;4.18;1.42;;;;;;;37.59;19.88;98596.91;4982824;28;20068;-76
2023/08/17 11:20:54;;;;;;;3.55;1.50;;;;;;;37.50;19.93;98599.50;4982660;28;20072;-77
2023/08/17 11:23:19;;;;;;;3.47;1.40;;;;;;;37.45;20.26;98607.78;4982695;28;20083;-78
2023/08/17 11:25:45;;;;;;;3.70;1.33;;;;;;;37.37;19.93;98597.53;4982306;28;20037;-78
2023/08/17 11:28:10;;;;;;;3.70;1.35;;;;;;;37.32;20.09;98609.31;4998733;28;20044;-77
2023/08/17 11:30:38;;;;;;;6.97;1.50;;;;;;;37.27;20.25;98617.56;5015377;28;20052;-75
2023/08/17 11:33:04;;;;;;;3.45;1.50;;;;;;;37.10;20.42;98593.56;5015245;28;20094;-77